createdAt,value
2022-08-03T00:00:14.423Z,24.97
2022-08-03T00:04:16.516Z,24.94
2022-08-03T00:08:19.571Z,24.90
2022-08-03T00:12:21.289Z,24.86
2022-08-03T00:16:25.097Z,24.84
2022-08-03T00:20:26.726Z,24.80
2022-08-03T00:24:28.367Z,24.75
2022-08-03T00:28:30.098Z,24.70
2022-08-03T00:32:31.658Z,24.66
2022-08-03T00:36:34.900Z,24.63
2022-08-03T00:40:36.514Z,24.61
2022-08-03T00:44:43.152Z,24.60
2022-08-03T00:48:44.756Z,24.55
2022-08-03T00:52:47.358Z,24.41
2022-08-03T00:56:59.546Z,24.29
2022-08-03T01:01:02.003Z,24.26
2022-08-03T01:05:04.124Z,24.12
2022-08-03T01:09:38.207Z,24.00
2022-08-03T01:14:03.849Z,23.96
2022-08-03T01:18:24.488Z,23.90
2022-08-03T01:22:37.800Z,23.84
2022-08-03T01:27:01.021Z,23.79
2022-08-03T01:31:11.089Z,23.72
2022-08-03T01:35:16.481Z,23.68
2022-08-03T01:39:19.217Z,23.63
2022-08-03T01:43:55.357Z,23.59
2022-08-03T01:47:48.396Z,23.59
2022-08-03T01:51:57.733Z,23.54
2022-08-03T01:56:06.869Z,23.47
2022-08-03T02:00:12.118Z,23.47
2022-08-03T02:04:17.411Z,23.44
2022-08-03T02:08:19.686Z,23.41
2022-08-03T02:12:23.824Z,23.34
2022-08-03T02:16:27.485Z,23.23
2022-08-03T02:20:32.971Z,23.16
2022-08-03T02:24:34.586Z,23.16
2022-08-03T02:28:40.714Z,23.14
2022-08-03T02:32:47.004Z,23.14
2022-08-03T02:36:53.552Z,23.03
2022-08-03T02:40:58.127Z,22.97
2022-08-03T02:45:02.811Z,22.91
2022-08-03T02:49:49.574Z,22.82
2022-08-03T02:53:29.423Z,22.75
2022-08-03T02:57:33.547Z,22.69
2022-08-03T03:01:35.741Z,22.44
2022-08-03T03:05:55.377Z,22.42
2022-08-03T03:10:00.288Z,22.48
2022-08-03T03:14:02.977Z,22.49
2022-08-03T03:18:06.980Z,22.51
2022-08-03T03:22:09.661Z,22.49
2022-08-03T03:26:14.434Z,22.46
2022-08-03T03:30:16.096Z,22.46
2022-08-03T03:34:18.823Z,22.44
2022-08-03T03:38:20.713Z,22.42
2022-08-03T03:42:22.740Z,22.36
2022-08-03T03:46:24.338Z,22.31
2022-08-03T03:50:27.363Z,22.31
2022-08-03T03:54:42.538Z,22.39
2022-08-03T03:58:44.358Z,22.31
2022-08-03T04:02:46.723Z,22.29
2022-08-03T04:07:06.909Z,22.29
2022-08-03T04:11:29.346Z,22.17
2022-08-03T04:15:34.080Z,22.14
2022-08-03T04:19:40.281Z,22.02
2022-08-03T04:23:46.069Z,22.08
2022-08-03T04:28:07.743Z,22.09
2022-08-03T04:32:11.618Z,22.11
2022-08-03T04:36:17.422Z,22.06
2022-08-03T04:40:22.868Z,22.05
2022-08-03T04:44:28.435Z,22.08
2022-08-03T04:48:30.548Z,22.11
2022-08-03T04:52:33.028Z,22.11
2022-08-03T04:56:34.657Z,22.12
2022-08-03T05:00:36.371Z,22.14
2022-08-03T05:04:40.761Z,22.21
2022-08-03T05:08:47.051Z,22.27
2022-08-03T05:12:52.208Z,22.30
2022-08-03T05:16:53.829Z,22.33
2022-08-03T05:20:55.407Z,22.31
2022-08-03T05:24:57.603Z,22.38
2022-08-03T05:28:59.148Z,22.39
2022-08-03T05:33:00.984Z,22.44
2022-08-03T05:37:02.529Z,22.48
2022-08-03T05:41:23.728Z,22.45
2022-08-03T05:45:28.426Z,22.42
2022-08-03T05:49:30.424Z,22.45
2022-08-03T05:53:34.886Z,22.52
2022-08-03T05:57:36.990Z,22.66
2022-08-03T06:01:38.623Z,22.75
2022-08-03T06:05:43.208Z,22.76
2022-08-03T06:10:35.912Z,22.89
2022-08-03T06:14:23.790Z,23.03
2022-08-03T06:18:25.600Z,23.14
2022-08-03T06:22:27.250Z,23.23
2022-08-03T06:26:28.898Z,23.35
2022-08-03T06:30:30.788Z,23.39
2022-08-03T06:34:35.817Z,23.50
2022-08-03T06:38:37.498Z,23.59
2022-08-03T06:42:39.075Z,23.64
2022-08-03T06:46:40.778Z,23.74
2022-08-03T06:50:44.231Z,23.82
2022-08-03T06:54:45.816Z,23.93
2022-08-03T06:58:47.651Z,24.02
2022-08-03T07:02:49.449Z,24.12
2022-08-03T07:06:55.169Z,24.21
2022-08-03T07:10:56.724Z,24.33
2022-08-03T07:15:02.153Z,24.46
2022-08-03T07:19:04.912Z,24.59
2022-08-03T07:23:06.454Z,24.67
2022-08-03T07:27:09.302Z,24.79
2022-08-03T07:31:10.891Z,24.90
2022-08-03T07:35:25.007Z,24.99
2022-08-03T07:39:27.097Z,25.14
2022-08-03T07:43:28.692Z,25.26
2022-08-03T07:47:35.405Z,25.38
2022-08-03T07:51:37.917Z,25.48
2022-08-03T07:55:39.538Z,25.61
2022-08-03T07:59:56.366Z,25.75
2022-08-03T08:04:01.733Z,25.89
2022-08-03T08:08:04.619Z,26.00
2022-08-03T08:12:15.210Z,26.12
2022-08-03T08:16:17.546Z,26.27
2022-08-03T08:20:31.967Z,26.35
2022-08-03T08:24:33.976Z,26.47
2022-08-03T08:28:36.113Z,26.54
2022-08-03T08:32:37.973Z,26.61
2022-08-03T08:36:39.559Z,26.75
2022-08-03T08:40:41.217Z,26.91
2022-08-03T08:44:42.823Z,27.03
2022-08-03T08:48:46.761Z,27.13
2022-08-03T08:52:50.181Z,27.25
2022-08-03T08:56:53.439Z,27.39
2022-08-03T09:00:55.086Z,27.50
2022-08-03T09:04:57.969Z,27.63
2022-08-03T09:08:59.666Z,27.78
2022-08-03T09:13:01.442Z,27.87
2022-08-03T09:17:04.563Z,27.96
2022-08-03T09:21:34.228Z,28.05
2022-08-03T09:25:43.439Z,28.21
2022-08-03T09:29:49.442Z,28.35
2022-08-03T09:33:51.028Z,28.46
2022-08-03T09:38:14.070Z,28.62
2022-08-03T09:42:18.265Z,28.72
2022-08-03T09:46:20.068Z,28.83
2022-08-03T09:50:21.670Z,28.95
2022-08-03T09:54:31.655Z,29.08
2022-08-03T09:58:33.235Z,29.27
2022-08-03T10:02:34.955Z,29.44
2022-08-03T10:06:36.536Z,29.57
2022-08-03T10:10:50.232Z,29.70
2022-08-03T10:14:52.804Z,29.85
2022-08-03T10:18:56.556Z,30.00
2022-08-03T10:22:59.175Z,30.15
2022-08-03T10:27:07.105Z,30.25
2022-08-03T10:31:10.694Z,30.32
2022-08-03T10:35:19.575Z,30.36
2022-08-03T10:39:25.348Z,30.51
2022-08-03T10:44:14.270Z,30.70
2022-08-03T10:48:17.542Z,30.85
2022-08-03T10:52:31.408Z,31.04
2022-08-03T10:56:54.603Z,31.16
2022-08-03T11:00:56.409Z,31.34
2022-08-03T11:05:30.644Z,31.50
2022-08-03T11:09:42.328Z,31.52
2022-08-03T11:14:18.920Z,31.62
2022-08-03T11:18:20.883Z,31.72
2022-08-03T11:22:49.023Z,31.85
2022-08-03T11:27:26.540Z,31.98
2022-08-03T11:36:02.461Z,32.10
2022-08-03T11:40:04.552Z,32.22
2022-08-03T11:44:06.184Z,32.34
2022-08-03T11:48:16.954Z,32.39
2022-08-03T11:52:19.488Z,32.44
2022-08-03T11:56:43.120Z,32.56
2022-08-03T12:00:44.745Z,32.66
2022-08-03T12:04:50.368Z,32.72
2022-08-03T12:08:51.953Z,32.84
2022-08-03T12:12:58.194Z,32.98
2022-08-03T12:17:00.166Z,33.07
2022-08-03T12:21:24.276Z,33.21
2022-08-03T12:25:39.204Z,33.33
2022-08-03T12:29:41.594Z,33.47
2022-08-03T12:34:07.946Z,33.57
2022-08-03T12:38:12.212Z,33.66
2022-08-03T12:42:13.793Z,33.79
2022-08-03T12:46:19.740Z,33.87
2022-08-03T12:50:33.235Z,34.01
2022-08-03T12:54:35.972Z,34.11
2022-08-03T12:58:37.643Z,34.21
2022-08-03T13:02:39.507Z,34.27
2022-08-03T13:07:02.776Z,34.38
2022-08-03T13:11:50.635Z,34.58
2022-08-03T13:15:47.788Z,34.80
2022-08-03T13:19:50.625Z,34.90
2022-08-03T13:23:52.360Z,35.05
2022-08-03T13:28:03.288Z,35.24
2022-08-03T13:32:07.555Z,35.46
2022-08-03T13:36:09.192Z,35.55
2022-08-03T13:40:11.636Z,35.62
2022-08-03T13:44:28.915Z,35.73
2022-08-03T13:48:37.081Z,35.91
2022-08-03T13:52:39.301Z,36.02
2022-08-03T13:56:40.889Z,36.11
2022-08-03T14:00:42.509Z,36.18
2022-08-03T14:04:44.155Z,36.34
2022-08-03T14:08:45.798Z,36.49
2022-08-03T14:12:47.401Z,36.57
2022-08-03T14:16:49.450Z,36.67
2022-08-03T14:20:54.391Z,36.67
2022-08-03T14:24:58.119Z,36.75
2022-08-03T14:29:00.228Z,36.87
2022-08-03T14:33:02.023Z,36.87
2022-08-03T14:37:03.650Z,36.97
2022-08-03T14:41:05.308Z,37.01
2022-08-03T14:45:09.566Z,37.02
2022-08-03T14:50:31.411Z,37.09
2022-08-03T14:53:43.016Z,37.13
2022-08-03T14:57:44.677Z,37.15
2022-08-03T15:02:02.408Z,37.28
2022-08-03T15:06:07.868Z,37.31
2022-08-03T15:10:09.471Z,37.47
2022-08-03T15:14:13.564Z,37.47
2022-08-03T15:18:16.528Z,37.50
2022-08-03T15:22:20.613Z,37.63
2022-08-03T15:26:30.757Z,37.78
2022-08-03T15:30:37.600Z,37.80
2022-08-03T15:34:39.184Z,37.78
2022-08-03T15:38:40.772Z,37.93
2022-08-03T15:42:42.361Z,38.02
2022-08-03T15:46:43.894Z,38.00
2022-08-03T15:50:45.557Z,38.09
2022-08-03T15:54:47.142Z,38.18
2022-08-03T15:59:04.205Z,38.03
2022-08-03T16:03:10.606Z,38.07
2022-08-03T16:07:14.313Z,38.02
2022-08-03T16:11:16.187Z,38.02
2022-08-03T16:15:17.878Z,38.03
2022-08-03T16:19:19.512Z,38.12
2022-08-03T16:23:21.079Z,38.02
2022-08-03T16:27:56.890Z,38.03
2022-08-03T16:31:51.330Z,38.02
2022-08-03T16:35:53.142Z,37.91
2022-08-03T16:39:55.412Z,37.91
2022-08-03T16:43:56.958Z,37.96
2022-08-03T16:48:05.649Z,37.96
2022-08-03T16:52:07.428Z,37.90
2022-08-03T16:56:10.904Z,37.87
2022-08-03T17:00:32.977Z,37.72
2022-08-03T17:04:35.746Z,37.58
2022-08-03T17:08:42.019Z,37.38
2022-08-03T17:12:56.874Z,37.12
2022-08-03T17:17:01.506Z,37.04
2022-08-03T17:21:05.768Z,36.89
2022-08-03T17:25:09.528Z,36.72
2022-08-03T17:29:26.659Z,36.49
2022-08-03T17:33:35.611Z,36.22
2022-08-03T17:37:58.539Z,35.96
2022-08-03T17:42:03.691Z,35.71
2022-08-03T17:46:07.128Z,35.42
2022-08-03T17:50:24.067Z,35.18
2022-08-03T17:54:33.289Z,34.98
2022-08-03T17:58:55.064Z,34.76
2022-08-03T18:03:15.121Z,34.60
2022-08-03T18:07:18.879Z,34.45
2022-08-03T18:11:24.047Z,34.33
2022-08-03T18:15:45.142Z,34.19
2022-08-03T18:20:03.584Z,34.09
2022-08-03T18:24:12.059Z,33.96
2022-08-03T18:28:15.865Z,33.81
2022-08-03T18:32:17.642Z,33.71
2022-08-03T18:36:21.616Z,33.56
2022-08-03T18:40:31.531Z,33.45
2022-08-03T18:44:52.621Z,33.34
2022-08-03T18:49:08.048Z,33.18
2022-08-03T18:53:22.811Z,33.05
2022-08-03T18:57:59.564Z,32.90
2022-08-03T19:02:06.484Z,32.84
2022-08-03T19:06:20.307Z,32.71
2022-08-03T19:10:25.504Z,32.58
2022-08-03T19:14:42.240Z,32.44
2022-08-03T19:18:48.575Z,32.36
2022-08-03T19:22:51.449Z,32.28
2022-08-03T19:26:55.887Z,32.12
2022-08-03T19:31:02.691Z,31.98
2022-08-03T19:35:13.345Z,31.90
2022-08-03T19:39:20.475Z,31.82
2022-08-03T19:43:52.562Z,31.72
2022-08-03T19:48:06.769Z,31.65
2022-08-03T19:52:11.747Z,31.57
2022-08-03T19:56:15.446Z,31.49
2022-08-03T20:00:19.912Z,31.42
2022-08-03T20:04:27.712Z,31.35
2022-08-03T20:08:29.842Z,31.27
2022-08-03T20:12:39.178Z,31.16
2022-08-03T20:16:42.702Z,31.01
2022-08-03T20:20:47.952Z,30.85
2022-08-03T20:24:53.501Z,30.75
2022-08-03T20:29:00.757Z,30.70
2022-08-03T20:33:11.426Z,30.63
2022-08-03T20:37:13.477Z,30.53
2022-08-03T20:41:18.896Z,30.49
2022-08-03T20:45:59.762Z,30.49
2022-08-03T20:49:46.269Z,30.34
2022-08-03T20:53:59.719Z,30.22
2022-08-03T20:58:02.212Z,30.15
2022-08-03T21:02:05.002Z,30.08
2022-08-03T21:06:09.946Z,30.07
2022-08-03T21:10:15.780Z,30.04
2022-08-03T21:14:52.267Z,29.94
2022-08-03T21:18:55.809Z,29.88
2022-08-03T21:22:59.141Z,29.78
2022-08-03T21:27:01.813Z,29.69
2022-08-03T21:31:04.108Z,29.64
2022-08-03T21:35:08.738Z,29.58
2022-08-03T21:39:11.359Z,29.48
2022-08-03T21:43:13.072Z,29.39
2022-08-03T21:47:15.361Z,29.33
2022-08-03T21:51:19.253Z,29.20
2022-08-03T21:55:25.316Z,29.11
2022-08-03T21:59:26.989Z,29.10
2022-08-03T22:03:29.728Z,29.05
2022-08-03T22:07:31.438Z,29.10
2022-08-03T22:11:35.011Z,29.08
2022-08-03T22:15:36.659Z,28.97
2022-08-03T22:19:38.218Z,28.97
2022-08-03T22:23:46.223Z,28.97
2022-08-03T22:27:48.036Z,28.98
2022-08-03T22:31:58.126Z,29.00
2022-08-03T22:36:04.718Z,28.98
2022-08-03T22:40:12.640Z,28.94
2022-08-03T22:44:14.804Z,28.91
2022-08-03T22:48:17.910Z,28.88
2022-08-03T22:52:20.220Z,28.82
2022-08-03T22:56:22.421Z,28.74
2022-08-03T23:00:24.522Z,28.70
2022-08-03T23:04:27.768Z,28.67
2022-08-03T23:08:32.515Z,28.67
2022-08-03T23:12:38.898Z,28.69
2022-08-03T23:16:42.733Z,28.69
2022-08-03T23:20:44.740Z,28.65
2022-08-03T23:24:47.280Z,28.61
2022-08-03T23:28:49.800Z,28.48
2022-08-03T23:32:54.617Z,28.27
2022-08-03T23:36:57.045Z,28.15
2022-08-03T23:41:00.020Z,28.05
2022-08-03T23:45:05.935Z,28.01
2022-08-03T23:49:08.154Z,27.99
2022-08-03T23:53:16.412Z,27.91
2022-08-03T23:57:45.194Z,27.87
